Sabahat Telli — TCSQ6 — position and weather

sailwx.info

Track history (hours):
 
Tides and Currents Weather Stations Pressure Air Temp Water Temp Dewpoint Dewpoint Depression Visibility Wind Speed Wind Dir Waves Ship Positions

Sabahat Telli

Last reported at 2015-Mar-23 17:30 UTC. Time now 2015-Apr-21 06:30 UTC.
Position N 40°50' E 029°16'.
Warning: this ship's position is 28 days out of date.

Length 99 m; draft 4 m.

Type: Tanker. MMSI: 271000961.

Date/timePositionNaut miles runAvg speedWind from/ knotsBaromVisibWave heightAir tempDewpointWater temp
2015-Mar-23 17:30N 40°50' E 029°16'1 0.9
2015-Mar-23 16:33N 40°51' E 029°15'3 3.5
2015-Mar-23 15:33N 40°48' E 029°12'0 0.0
2015-Mar-23 14:33N 40°48' E 029°12'0 0.0
2015-Mar-23 13:33N 40°48' E 029°12'2 2.5
2015-Mar-23 12:33N 40°47' E 029°15'4 3.7
2015-Mar-23 11:33N 40°43' E 029°15'2 2.0
2015-Mar-23 10:32N 40°41' E 029°13'4 4.6
2015-Mar-23 09:33N 40°43' E 029°18'9 8.6
2015-Mar-23 08:32N 40°45' E 029°30'7 0.3
2015-Mar-22 13:03N 40°46' E 029°39'5 7.8
2015-Mar-22 12:28N 40°46' E 029°32'0 0.0
2015-Mar-22 05:16N 40°46' E 029°32'1 0.0
2015-Mar-21 10:10N 40°46' E 029°32'0 0.0
2015-Mar-21 09:03N 40°46' E 029°32'0 0.0
2015-Mar-21 08:15N 40°46' E 029°32'0 0.0
2015-Mar-21 06:32N 40°46' E 029°32'0 0.2
2015-Mar-21 04:31N 40°45' E 029°32'0 0.0
2015-Mar-20 09:29N 40°46' E 029°33'7 7.7
2015-Mar-20 08:32N 40°44' E 029°23'6 5.3
2015-Mar-20 07:30N 40°43' E 029°16'0 0.0
2015-Mar-20 06:32N 40°43' E 029°16'0 0.4
2015-Mar-20 05:30N 40°43' E 029°16'1010.1
2015-Mar-20 04:31N 40°49' E 029°05'1010.1
2015-Mar-20 03:33N 40°56' E 028°57'40 5.7
2015-Mar-19 20:33N 41°27' E 029°30'27711.9
2015-Mar-18 21:11N 44°01' E 034°44'812.4
2015-Mar-18 20:30N 44°06' E 034°54'  
Track history (hours):
 
Tides and Currents Weather Stations Pressure Air Temp Water Temp Dewpoint Dewpoint Depression Visibility Wind Speed Wind Dir Waves Ship Positions

Sabahat Telli

Last reported at 2015-Mar-23 17:30 UTC. Time now 2015-Apr-21 06:30 UTC.
Position N 40°50' E 029°16'.
Warning: this ship's position is 28 days out of date.

Length 99 m; draft 4 m.

Type: Tanker. MMSI: 271000961.

Date/timePositionNaut miles runAvg speedWind from/ knotsBaromVisibWave heightAir tempDewpointWater temp
2015-Mar-23 17:30N 40°50' E 029°16'1 0.9
2015-Mar-23 16:33N 40°51' E 029°15'3 3.5
2015-Mar-23 15:33N 40°48' E 029°12'0 0.0
2015-Mar-23 14:33N 40°48' E 029°12'0 0.0
2015-Mar-23 13:33N 40°48' E 029°12'2 2.5
2015-Mar-23 12:33N 40°47' E 029°15'4 3.7
2015-Mar-23 11:33N 40°43' E 029°15'2 2.0
2015-Mar-23 10:32N 40°41' E 029°13'4 4.6
2015-Mar-23 09:33N 40°43' E 029°18'9 8.6
2015-Mar-23 08:32N 40°45' E 029°30'7 0.3
2015-Mar-22 13:03N 40°46' E 029°39'5 7.8
2015-Mar-22 12:28N 40°46' E 029°32'0 0.0
2015-Mar-22 05:16N 40°46' E 029°32'1 0.0
2015-Mar-21 10:10N 40°46' E 029°32'0 0.0
2015-Mar-21 09:03N 40°46' E 029°32'0 0.0
2015-Mar-21 08:15N 40°46' E 029°32'0 0.0
2015-Mar-21 06:32N 40°46' E 029°32'0 0.2
2015-Mar-21 04:31N 40°45' E 029°32'0 0.0
2015-Mar-20 09:29N 40°46' E 029°33'7 7.7
2015-Mar-20 08:32N 40°44' E 029°23'6 5.3
2015-Mar-20 07:30N 40°43' E 029°16'0 0.0
2015-Mar-20 06:32N 40°43' E 029°16'0 0.4
2015-Mar-20 05:30N 40°43' E 029°16'1010.1
2015-Mar-20 04:31N 40°49' E 029°05'1010.1
2015-Mar-20 03:33N 40°56' E 028°57'40 5.7
2015-Mar-19 20:33N 41°27' E 029°30'27711.9
2015-Mar-18 21:11N 44°01' E 034°44'812.4
2015-Mar-18 20:30N 44°06' E 034°54'  

Dump ship's entire track history